Federal Dam, Minnesota
Current Conditions -  °F | °C
As of 1:55 PM on Saturday 25 Oct 2014 (Local Time) from KY49 Reporting Station
Clear Clear  
Wind Chill: 55°   Ceiling: Unl
Heat Index: 55°   Visibility: 10mi
Dew Point: 26°   Wind: 10mph
Humidity: 32%   Direction: 320°NW
Pressure: 30"   Gusts: 21mph
Location:  47.25°N, 94.21°W
Report Text: KY49 251855Z AUTO 32009G18KT 280V360 10SM CLR 13/M03 A3000 RMK AO2 T01271035
Loading
Personal Weather Stations






























Interactive Weather Map
Tropical Storm Tracking
New forecast layout! Learn more

10-Day Weather Forecast

Advertisements
Track Severe Weather on mobile